Time;durP1;ratioP1;P1;durP2;ratioP2;P2;SDS_P1;SDS_P2;PMS_P1;PMS_P2;Temp;Humidity;BMP_temperature;BMP_pressure;BME280_temperature;BME280_humidity;BME280_pressure;Samples;Min_cycle;Max_cycle;Signal;HPM_P1;HPM_P2
2023/06/09 00:02:22;;;;;;;6.55;5.35;;;16.60;99.90;;;;;;5094737;28;20202;-84
2023/06/09 00:04:48;;;;;;;8.40;5.85;;;16.60;99.90;;;;;;5076569;28;20359;-84
2023/06/09 00:07:15;;;;;;;8.02;5.80;;;16.60;99.90;;;;;;5094452;28;20167;-83
2023/06/09 00:09:45;;;;;;;7.05;5.28;;;16.60;99.90;;;;;;5076646;28;20182;-83
2023/06/09 00:12:12;;;;;;;7.68;5.50;;;16.50;99.90;;;;;;5076097;28;20312;-84
2023/06/09 00:14:37;;;;;;;8.27;5.70;;;16.60;99.90;;;;;;5094619;28;20183;-84
2023/06/09 00:17:08;;;;;;;7.47;5.80;;;16.60;99.90;;;;;;5094259;28;20197;-84
2023/06/09 00:19:37;;;;;;;10.18;6.22;;;16.60;99.90;;;;;;5076295;28;20269;-84
2023/06/09 00:22:03;;;;;;;12.13;6.28;;;16.60;99.90;;;;;;5094345;28;20183;-83
2023/06/09 00:24:29;;;;;;;6.68;5.20;;;16.60;99.90;;;;;;5093975;28;20198;-83
2023/06/09 00:26:54;;;;;;;7.95;6.03;;;16.60;99.90;;;;;;5094057;28;20295;-82
2023/06/09 00:29:24;;;;;;;10.00;5.97;;;16.60;99.90;;;;;;5076132;28;20175;-83
2023/06/09 00:31:49;;;;;;;8.98;5.65;;;16.60;99.90;;;;;;5094431;28;20175;-83
2023/06/09 00:34:15;;;;;;;6.50;5.28;;;16.60;99.90;;;;;;5093710;28;20171;-84
2023/06/09 00:36:41;;;;;;;7.60;5.68;;;16.60;99.90;;;;;;5093741;28;20573;-83
2023/06/09 00:39:08;;;;;;;10.02;6.25;;;16.60;99.90;;;;;;5094114;28;20182;-83
2023/06/09 00:41:38;;;;;;;10.82;5.57;;;16.50;99.90;;;;;;5060161;28;20178;-83
2023/06/09 00:44:04;;;;;;;7.07;5.25;;;16.50;99.90;;;;;;5108943;28;20205;-83
2023/06/09 00:46:31;;;;;;;13.05;6.07;;;16.50;99.90;;;;;;5092162;28;20630;-84
2023/06/09 00:48:57;;;;;;;8.32;6.07;;;16.50;99.90;;;;;;5093978;28;20167;-84
2023/06/09 00:51:23;;;;;;;10.30;5.45;;;16.50;99.90;;;;;;5093520;28;20189;-83
2023/06/09 00:53:49;;;;;;;9.10;5.82;;;16.50;99.90;;;;;;5093951;28;20178;-84
2023/06/09 00:56:15;;;;;;;6.93;5.18;;;16.40;99.90;;;;;;5093731;28;20619;-83
2023/06/09 00:58:41;;;;;;;8.63;4.85;;;16.40;99.90;;;;;;5075776;28;20186;-83
2023/06/09 01:01:06;;;;;;;8.25;5.50;;;16.40;99.90;;;;;;5075810;28;20178;-83
2023/06/09 01:03:32;;;;;;;11.25;6.03;;;16.40;99.90;;;;;;5075253;28;20263;-86
2023/06/09 01:06:12;;;;;;;16.98;6.18;;;16.40;99.90;;;;;;5093816;28;20178;-85
2023/06/09 01:08:45;;;;;;;9.27;6.57;;;16.40;99.90;;;;;;5093735;28;20170;-84
2023/06/09 01:11:28;;;;;;;12.27;5.63;;;16.40;99.90;;;;;;5075767;28;20179;-84
2023/06/09 01:14:13;;;;;;;9.10;5.50;;;16.40;99.90;;;;;;5093674;28;20174;-84
2023/06/09 01:16:52;;;;;;;7.80;5.15;;;16.40;99.90;;;;;;5093964;28;20245;-84
2023/06/09 01:19:34;;;;;;;9.57;5.97;;;15.20;99.90;;;;;;5093465;28;20170;-84
2023/06/09 01:22:06;;;;;;;8.52;5.68;;;16.40;99.90;;;;;;5093668;28;20281;-85
2023/06/09 01:24:46;;;;;;;8.68;6.00;;;16.40;99.90;;;;;;5093149;28;20263;-84
2023/06/09 01:27:14;;;;;;;8.40;5.93;;;16.40;99.90;;;;;;5093352;28;20233;-84
2023/06/09 01:29:43;;;;;;;7.47;5.78;;;16.40;99.90;;;;;;5075662;28;20204;-84
2023/06/09 01:32:10;;;;;;;7.10;5.90;;;16.50;99.90;;;;;;5093439;28;20175;-84
2023/06/09 01:34:36;;;;;;;8.82;5.55;;;16.50;99.90;;;;;;5093150;28;20281;-84
2023/06/09 01:37:02;;;;;;;7.55;5.65;;;16.50;99.90;;;;;;5075319;28;20235;-84
2023/06/09 01:39:28;;;;;;;10.57;6.47;;;16.50;99.90;;;;;;5093406;28;20269;-84
2023/06/09 01:41:53;;;;;;;6.65;5.05;;;16.40;99.90;;;;;;5075047;28;20575;-84
2023/06/09 01:44:19;;;;;;;9.77;6.57;;;16.50;99.90;;;;;;5075140;28;20692;-85
2023/06/09 01:46:45;;;;;;;9.77;6.07;;;16.50;99.90;;;;;;5097754;28;20189;-84
2023/06/09 01:49:15;;;;;;;6.43;5.18;;;16.40;99.90;;;;;;5099363;28;20658;-84
2023/06/09 01:51:44;;;;;;;14.48;6.38;;;16.40;99.90;;;;;;5096899;28;20235;-84
2023/06/09 01:54:14;;;;;;;10.32;6.78;;;16.40;99.90;;;;;;5078998;28;20263;-85
2023/06/09 01:56:56;;;;;;;9.57;6.03;;;16.40;99.90;;;;;;5097365;28;20303;-86
2023/06/09 01:59:27;;;;;;;7.70;6.20;;;16.40;99.90;;;;;;5097075;28;20646;-85
2023/06/09 02:01:56;;;;;;;8.60;6.85;;;16.40;99.90;;;;;;5097162;28;20179;-85
2023/06/09 02:04:25;;;;;;;11.80;6.38;;;16.40;99.90;;;;;;5096627;28;20431;-85
2023/06/09 02:06:52;;;;;;;9.07;6.93;;;16.40;99.90;;;;;;5096711;28;20558;-85
2023/06/09 02:09:18;;;;;;;9.57;6.68;;;16.40;99.90;;;;;;5097399;28;20253;-85
2023/06/09 02:11:51;;;;;;;10.20;6.50;;;16.30;99.90;;;;;;5078624;28;20213;-85
2023/06/09 02:14:17;;;;;;;8.15;6.65;;;16.40;99.90;;;;;;5096787;28;20170;-85
2023/06/09 02:16:43;;;;;;;11.63;7.03;;;16.40;99.90;;;;;;5078476;28;20631;-85
2023/06/09 02:19:12;;;;;;;11.27;6.70;;;16.40;99.90;;;;;;5096692;28;20261;-85
2023/06/09 02:21:38;;;;;;;10.65;6.70;;;16.40;99.90;;;;;;5096581;28;20220;-85
2023/06/09 02:24:04;;;;;;;10.15;6.18;;;16.40;99.90;;;;;;5062068;28;20255;-85
2023/06/09 02:26:30;;;;;;;10.35;7.53;;;16.40;99.90;;;;;;5078525;28;20185;-85
2023/06/09 02:28:56;;;;;;;10.45;6.97;;;16.40;99.90;;;;;;5096527;28;20186;-85
2023/06/09 02:31:22;;;;;;;10.10;7.53;;;16.40;99.90;;;;;;5096790;28;20174;-84
2023/06/09 02:33:47;;;;;;;11.98;6.68;;;16.30;99.90;;;;;;5096525;28;20635;-84
2023/06/09 02:36:13;;;;;;;11.10;6.60;;;16.40;99.90;;;;;;5078291;28;20189;-85
2023/06/09 02:38:39;;;;;;;8.98;6.95;;;16.40;99.90;;;;;;5096298;28;20627;-84
2023/06/09 02:41:05;;;;;;;10.70;6.80;;;16.40;99.90;;;;;;5096412;28;20179;-85
2023/06/09 02:43:30;;;;;;;13.23;7.10;;;16.40;99.90;;;;;;5096133;28;20229;-85
2023/06/09 02:45:56;;;;;;;12.65;7.50;;;16.40;99.90;;;;;;5096062;28;20179;-85
2023/06/09 02:48:21;;;;;;;12.73;7.68;;;16.40;99.90;;;;;;5096118;28;20683;-85
2023/06/09 02:50:47;;;;;;;10.18;7.30;;;16.30;99.90;;;;;;5077766;28;20235;-85
2023/06/09 02:53:13;;;;;;;10.30;7.50;;;16.40;99.90;;;;;;5096585;28;20197;-85
2023/06/09 02:55:38;;;;;;;11.95;7.25;;;16.40;99.90;;;;;;5096021;28;20187;-85
2023/06/09 02:58:04;;;;;;;10.80;7.63;;;16.30;99.90;;;;;;5077593;28;20587;-85
2023/06/09 03:00:31;;;;;;;12.20;7.30;;;16.30;99.90;;;;;;5077173;28;20643;-85
2023/06/09 03:02:57;;;;;;;9.68;6.95;;;16.30;99.90;;;;;;5095678;28;20167;-85
2023/06/09 03:05:24;;;;;;;9.82;7.28;;;16.40;99.90;;;;;;5077621;28;20206;-84
2023/06/09 03:07:50;;;;;;;10.40;7.78;;;16.40;99.90;;;;;;5096065;28;20501;-84
2023/06/09 03:10:18;;;;;;;9.73;7.20;;;16.40;99.90;;;;;;5077935;28;20187;-85
2023/06/09 03:12:44;;;;;;;14.93;8.40;;;16.40;99.90;;;;;;5095657;28;20170;-85
2023/06/09 03:15:10;;;;;;;11.75;7.57;;;16.40;99.90;;;;;;5095688;28;20181;-85
2023/06/09 03:17:35;;;;;;;15.18;8.02;;;16.40;99.90;;;;;;5077437;28;20635;-85
2023/06/09 03:20:01;;;;;;;13.00;7.70;;;16.40;99.90;;;;;;5095474;28;20520;-85
2023/06/09 03:22:27;;;;;;;12.63;7.90;;;16.40;99.90;;;;;;5095725;28;20170;-85
2023/06/09 03:24:53;;;;;;;10.93;8.38;;;16.40;99.90;;;;;;5077307;28;20631;-85
2023/06/09 03:27:18;;;;;;;10.20;7.43;;;16.50;99.90;;;;;;5095370;28;20234;-84
2023/06/09 03:29:44;;;;;;;16.55;8.00;;;16.50;99.90;;;;;;5077125;28;20179;-85
2023/06/09 03:32:10;;;;;;;10.90;8.07;;;16.50;99.90;;;;;;5095197;28;20303;-85
2023/06/09 03:34:36;;;;;;;13.43;8.30;;;16.50;99.90;;;;;;5060240;28;20185;-88
2023/06/09 03:37:04;;;;;;;9.77;7.88;;;16.50;99.90;;;;;;5077174;28;20589;-87
2023/06/09 03:39:29;;;;;;;10.40;7.78;;;16.50;99.90;;;;;;5095134;28;20208;-87
2023/06/09 03:41:56;;;;;;;10.52;8.43;;;16.50;99.90;;;;;;5077126;28;20178;-87
2023/06/09 03:44:22;;;;;;;11.80;8.38;;;16.50;99.90;;;;;;5076913;28;20222;-87
2023/06/09 03:46:49;;;;;;;15.75;8.52;;;16.50;99.90;;;;;;5076668;28;20178;-87
2023/06/09 03:49:15;;;;;;;12.20;8.52;;;16.50;99.90;;;;;;5076958;28;20547;-87
2023/06/09 03:51:40;;;;;;;10.98;8.40;;;16.60;99.90;;;;;;5059988;28;20178;-87
2023/06/09 03:54:06;;;;;;;15.50;9.00;;;16.70;99.90;;;;;;5088447;28;20644;-86
2023/06/09 03:56:32;;;;;;;17.33;9.13;;;16.70;99.90;;;;;;5074611;28;20647;-87
2023/06/09 03:58:58;;;;;;;19.50;8.70;;;16.70;99.90;;;;;;5074334;28;20175;-87
2023/06/09 04:01:25;;;;;;;11.88;8.43;;;16.70;99.90;;;;;;5074956;28;20636;-86
2023/06/09 04:03:51;;;;;;;12.48;8.15;;;16.80;99.90;;;;;;5074006;28;20687;-86
2023/06/09 04:06:16;;;;;;;14.32;8.55;;;16.80;99.90;;;;;;5074486;28;20181;-85
2023/06/09 04:08:44;;;;;;;12.73;8.25;;;16.80;99.90;;;;;;5056272;28;20179;-86
2023/06/09 04:11:10;;;;;;;11.40;8.45;;;16.90;99.90;;;;;;5055924;28;20180;-88
2023/06/09 04:13:35;;;;;;;14.75;8.75;;;16.90;99.90;;;;;;5074200;28;20236;-87
2023/06/09 04:16:01;;;;;;;12.25;8.70;;;16.90;99.90;;;;;;5076599;28;20269;-87
2023/06/09 04:18:27;;;;;;;12.88;8.77;;;16.90;99.90;;;;;;5049820;28;20663;-87
2023/06/09 04:20:52;;;;;;;11.75;8.77;;;17.00;99.90;;;;;;5067024;28;20212;-87
2023/06/09 04:23:18;;;;;;;12.65;8.98;;;17.00;99.90;;;;;;5083017;28;20238;-87
2023/06/09 04:25:45;;;;;;;13.15;8.70;;;17.10;99.90;;;;;;5081828;28;20203;-87
2023/06/09 04:28:11;;;;;;;12.40;8.50;;;17.20;99.90;;;;;;5056532;28;20280;-86
2023/06/09 04:30:38;;;;;;;13.85;8.80;;;17.20;99.90;;;;;;5057975;28;20578;-87
2023/06/09 04:33:03;;;;;;;15.52;8.80;;;17.20;99.90;;;;;;5075988;28;20178;-87
2023/06/09 04:35:30;;;;;;;16.23;8.77;;;17.20;99.90;;;;;;5076072;28;20185;-87
2023/06/09 04:38:00;;;;;;;11.73;8.68;;;17.20;99.90;;;;;;5093587;28;20178;-86
2023/06/09 04:40:26;;;;;;;14.05;8.98;;;17.20;99.90;;;;;;5093771;28;20294;-87
2023/06/09 04:42:59;;;;;;;18.65;9.73;;;17.20;99.90;;;;;;5094039;28;20175;-87
2023/06/09 04:45:28;;;;;;;15.65;9.48;;;17.30;99.90;;;;;;5093754;28;20644;-88
2023/06/09 04:47:59;;;;;;;13.00;8.95;;;17.30;99.90;;;;;;5093695;28;20183;-86
2023/06/09 04:50:35;;;;;;;14.80;9.35;;;17.40;99.90;;;;;;5094030;28;20170;-87
2023/06/09 04:53:06;;;;;;;11.75;8.57;;;17.30;99.90;;;;;;5093541;28;20174;-87
2023/06/09 04:55:35;;;;;;;17.08;8.73;;;17.40;99.90;;;;;;5059684;28;20182;-87
2023/06/09 04:58:00;;;;;;;12.15;9.07;;;17.40;99.90;;;;;;5093625;28;20178;-86
2023/06/09 05:00:27;;;;;;;10.52;8.48;;;17.40;99.90;;;;;;5093782;28;20185;-84
2023/06/09 05:02:54;;;;;;;12.40;9.30;;;17.50;99.90;;;;;;5093277;28;20619;-86
2023/06/09 05:05:20;;;;;;;13.20;9.60;;;17.50;99.90;;;;;;5075451;28;20178;-84
2023/06/09 05:07:46;;;;;;;13.35;9.48;;;17.50;99.90;;;;;;5093263;28;20189;-84
2023/06/09 05:10:12;;;;;;;14.25;9.75;;;17.50;99.90;;;;;;5093439;28;20583;-84
2023/06/09 05:12:39;;;;;;;12.68;9.20;;;17.60;99.90;;;;;;5075266;28;20209;-85
2023/06/09 05:15:06;;;;;;;14.82;9.13;;;17.60;99.90;;;;;;5093039;28;20190;-84
2023/06/09 05:17:41;;;;;;;14.27;9.27;;;17.60;99.90;;;;;;5093313;28;20193;-84
2023/06/09 05:20:08;;;;;;;13.10;9.18;;;17.70;99.90;;;;;;5092698;28;20181;-84
2023/06/09 05:22:35;;;;;;;13.98;9.15;;;17.70;99.90;;;;;;5092350;28;20178;-85
2023/06/09 05:25:06;;;;;;;13.98;10.13;;;17.70;99.90;;;;;;5092015;28;20538;-85
2023/06/09 05:27:32;;;;;;;15.68;10.20;;;17.80;99.90;;;;;;5092462;28;20226;-86
2023/06/09 05:29:57;;;;;;;14.75;10.25;;;17.80;99.90;;;;;;5074414;28;20197;-85
2023/06/09 05:32:23;;;;;;;13.13;9.30;;;17.80;99.90;;;;;;5074248;28;20558;-85
2023/06/09 05:34:49;;;;;;;13.52;9.20;;;17.90;99.90;;;;;;5074395;28;20653;-83
2023/06/09 05:37:15;;;;;;;13.55;10.65;;;18.10;99.90;;;;;;5074369;28;20179;-85
2023/06/09 05:39:41;;;;;;;13.90;9.48;;;18.00;99.90;;;;;;5092738;28;20185;-85
2023/06/09 05:42:10;;;;;;;14.27;9.30;;;18.00;99.90;;;;;;5092525;28;20257;-86
2023/06/09 05:44:36;;;;;;;14.80;10.15;;;18.10;99.90;;;;;;5092336;28;20202;-84
2023/06/09 05:47:03;;;;;;;14.32;10.48;;;18.30;99.90;;;;;;5074184;28;20217;-85
2023/06/09 05:49:28;;;;;;;15.93;10.77;;;18.30;99.90;;;;;;5074495;28;20428;-88
2023/06/09 05:51:54;;;;;;;14.80;9.95;;;18.40;99.90;;;;;;5074281;28;20182;-85
2023/06/09 05:54:20;;;;;;;16.08;9.32;;;18.40;99.90;;;;;;5092346;28;20186;-86
2023/06/09 05:56:48;;;;;;;14.02;10.98;;;18.50;99.90;;;;;;5074505;28;20197;-84
2023/06/09 05:59:15;;;;;;;13.32;10.02;;;18.50;99.90;;;;;;5092744;28;20169;-85
2023/06/09 06:01:41;;;;;;;13.27;9.88;;;18.60;99.90;;;;;;5103327;28;20179;-84
2023/06/09 06:04:08;;;;;;;19.23;10.52;;;18.70;99.90;;;;;;5089288;28;20206;-84
2023/06/09 06:06:34;;;;;;;16.33;10.43;;;18.70;99.90;;;;;;5106971;28;20174;-85
2023/06/09 06:09:00;;;;;;;12.23;10.10;;;18.80;99.90;;;;;;5103656;28;20183;-86
2023/06/09 06:11:26;;;;;;;15.18;10.68;;;18.90;99.90;;;;;;5092691;28;20615;-86
2023/06/09 06:13:51;;;;;;;13.90;10.07;;;19.00;99.90;;;;;;5074372;28;20186;-86
2023/06/09 06:16:17;;;;;;;13.23;10.30;;;19.00;99.90;;;;;;5092140;28;20179;-87
2023/06/09 06:18:43;;;;;;;15.15;10.57;;;19.10;99.90;;;;;;5092008;28;20647;-85
2023/06/09 06:21:09;;;;;;;15.82;10.93;;;19.20;99.90;;;;;;5056933;28;20190;-85
2023/06/09 06:23:35;;;;;;;14.02;10.65;;;19.30;99.90;;;;;;5091736;28;20211;-84
2023/06/09 06:26:01;;;;;;;15.05;11.43;;;19.30;99.90;;;;;;5091964;28;20631;-85
2023/06/09 06:28:28;;;;;;;13.63;10.55;;;19.40;99.90;;;;;;5091855;28;20237;-85
2023/06/09 06:30:54;;;;;;;15.18;10.30;;;19.50;99.90;;;;;;5073890;28;20493;-88
2023/06/09 06:33:19;;;;;;;12.93;10.07;;;19.60;99.90;;;;;;5093207;28;20805;-85
2023/06/09 06:35:45;;;;;;;15.23;10.75;;;19.70;99.90;;;;;;5095598;28;20186;-88
2023/06/09 06:38:11;;;;;;;13.90;10.73;;;19.70;99.90;;;;;;5095622;28;20635;-86
2023/06/09 06:40:36;;;;;;;14.52;10.40;;;19.80;99.90;;;;;;5095779;28;20635;-84
2023/06/09 06:43:02;;;;;;;14.65;10.13;;;19.90;99.90;;;;;;5095305;28;20611;-85
2023/06/09 06:45:28;;;;;;;16.63;10.55;;;20.20;99.90;;;;;;5077194;28;20243;-86
2023/06/09 06:47:54;;;;;;;14.60;10.18;;;20.30;99.90;;;;;;5095008;28;20635;-85
2023/06/09 06:50:20;;;;;;;13.57;10.00;;;20.50;99.90;;;;;;5095237;28;20222;-85
2023/06/09 06:52:48;;;;;;;16.13;10.55;;;21.30;99.90;;;;;;5095146;28;20175;-85
2023/06/09 06:55:14;;;;;;;16.08;10.15;;;20.80;99.90;;;;;;5077346;28;20183;-85
2023/06/09 06:57:40;;;;;;;14.88;10.57;;;20.80;99.90;;;;;;5096298;28;20650;-85
2023/06/09 07:00:16;;;;;;;15.65;10.80;;;20.80;99.90;;;;;;5077385;28;20185;-85
2023/06/09 07:02:44;;;;;;;13.48;10.20;;;20.90;99.90;;;;;;5077578;28;20269;-86
2023/06/09 07:05:10;;;;;;;21.13;10.82;;;20.80;99.90;;;;;;5076794;28;20578;-86
2023/06/09 07:07:36;;;;;;;11.88;9.88;;;20.90;99.90;;;;;;5060907;28;20175;-86
2023/06/09 07:10:02;;;;;;;24.60;10.60;;;20.90;99.90;;;;;;5095515;28;20175;-86
2023/06/09 07:12:28;;;;;;;12.50;9.73;;;20.90;99.90;;;;;;5095662;28;20171;-83
2023/06/09 07:14:55;;;;;;;14.20;9.55;;;21.00;99.90;;;;;;5077562;28;20548;-84
2023/06/09 07:17:21;;;;;;;14.07;9.73;;;21.00;99.90;;;;;;5095032;28;20170;-84
2023/06/09 07:19:47;;;;;;;17.17;9.90;;;21.00;99.90;;;;;;5077243;28;20182;-84
2023/06/09 07:22:12;;;;;;;13.40;9.73;;;21.00;99.90;;;;;;5094924;28;20179;-85
2023/06/09 07:24:38;;;;;;;13.10;10.10;;;21.00;99.90;;;;;;5085017;28;20222;-84
2023/06/09 07:27:05;;;;;;;13.98;10.32;;;21.10;99.90;;;;;;5073272;28;20179;-85
2023/06/09 07:29:34;;;;;;;14.68;10.60;;;21.00;99.90;;;;;;5073816;28;20175;-84
2023/06/09 07:32:00;;;;;;;13.43;10.55;;;21.10;99.90;;;;;;5073426;28;20194;-85
2023/06/09 07:34:27;;;;;;;13.90;9.98;;;21.20;99.90;;;;;;5074058;28;20175;-85
2023/06/09 07:36:53;;;;;;;11.90;9.20;;;21.10;99.90;;;;;;5039811;28;20256;-84
2023/06/09 07:39:22;;;;;;;12.93;9.60;;;21.20;99.90;;;;;;5055724;28;20534;-85
2023/06/09 07:41:47;;;;;;;14.27;9.50;;;21.20;99.90;;;;;;5056205;28;20178;-85
2023/06/09 07:44:13;;;;;;;12.90;9.60;;;21.20;99.90;;;;;;5039149;28;20652;-85
2023/06/09 07:46:38;;;;;;;12.60;9.68;;;21.20;99.90;;;;;;5056057;28;20193;-84
2023/06/09 07:49:04;;;;;;;11.98;9.00;;;21.20;99.90;;;;;;5055078;28;20695;-84
2023/06/09 07:51:30;;;;;;;15.25;10.38;;;21.20;99.90;;;;;;5083843;28;20176;-84
2023/06/09 07:53:56;;;;;;;14.43;10.90;;;21.20;99.90;;;;;;5072754;28;20190;-84
2023/06/09 07:56:22;;;;;;;13.00;10.18;;;21.20;99.90;;;;;;5064339;28;20183;-84
2023/06/09 07:58:49;;;;;;;15.82;9.80;;;21.20;99.90;;;;;;5084702;28;20167;-85
2023/06/09 08:01:15;;;;;;;18.13;10.75;;;21.20;99.90;;;;;;5064926;28;20197;-83
2023/06/09 08:03:41;;;;;;;13.75;9.93;;;21.00;99.90;;;;;;5084994;28;20670;-84
2023/06/09 08:06:08;;;;;;;16.27;10.48;;;21.00;99.90;;;;;;5084909;28;20548;-84
2023/06/09 08:08:34;;;;;;;10.57;8.55;;;21.00;99.90;;;;;;5084538;28;20241;-84
2023/06/09 08:11:00;;;;;;;13.20;9.07;;;21.00;99.90;;;;;;5082557;28;20180;-84
2023/06/09 08:13:26;;;;;;;12.70;9.25;;;21.00;99.90;;;;;;5082574;28;20187;-84
2023/06/09 08:15:52;;;;;;;12.63;9.98;;;21.00;99.90;;;;;;5083800;28;20261;-84
2023/06/09 08:18:18;;;;;;;10.85;8.82;;;21.00;99.90;;;;;;5063869;28;20213;-84
2023/06/09 08:20:43;;;;;;;13.75;9.77;;;21.00;99.90;;;;;;5067121;28;20176;-84
2023/06/09 08:23:09;;;;;;;15.98;10.07;;;21.00;99.90;;;;;;5082622;28;20178;-83
2023/06/09 08:25:36;;;;;;;12.95;9.57;;;20.90;99.90;;;;;;5064883;28;20219;-84
2023/06/09 08:28:02;;;;;;;11.27;9.50;;;20.90;99.90;;;;;;5072311;28;20306;-83
2023/06/09 08:30:28;;;;;;;16.75;9.05;;;21.00;99.90;;;;;;5053837;28;20659;-86
2023/06/09 08:32:53;;;;;;;12.95;9.85;;;21.00;99.90;;;;;;5054222;28;20573;-83
2023/06/09 08:35:21;;;;;;;13.55;9.68;;;21.00;99.90;;;;;;5053942;28;20547;-83
2023/06/09 08:37:47;;;;;;;12.40;9.50;;;21.00;99.90;;;;;;5054185;28;20198;-83
2023/06/09 08:40:13;;;;;;;14.25;10.68;;;21.00;99.90;;;;;;5037633;28;20175;-83
2023/06/09 08:42:39;;;;;;;11.63;8.55;;;21.00;99.90;;;;;;5054154;28;20183;-83
2023/06/09 08:45:06;;;;;;;11.75;9.20;;;20.90;99.90;;;;;;5071529;28;20199;-83
2023/06/09 08:47:33;;;;;;;12.98;9.57;;;21.00;99.90;;;;;;5072023;28;20179;-84
2023/06/09 08:49:59;;;;;;;14.00;8.90;;;21.00;99.90;;;;;;5054249;28;20187;-84
2023/06/09 08:52:27;;;;;;;14.50;8.73;;;21.10;99.90;;;;;;5071605;28;20764;-84
2023/06/09 08:54:57;;;;;;;12.23;9.43;;;21.10;99.90;;;;;;5072202;28;20191;-84
2023/06/09 08:57:23;;;;;;;11.43;8.45;;;21.20;99.90;;;;;;5053793;28;20179;-84
2023/06/09 08:59:50;;;;;;;11.35;7.75;;;;;;;;;;5071541;28;20199;-84
2023/06/09 09:02:16;;;;;;;12.77;8.48;;;21.20;99.90;;;;;;5071353;28;20185;-84
2023/06/09 09:04:43;;;;;;;12.65;8.60;;;21.20;99.90;;;;;;5071664;28;20210;-84
2023/06/09 09:07:13;;;;;;;9.75;8.20;;;21.20;99.90;;;;;;5071354;28;20187;-83
2023/06/09 09:09:39;;;;;;;10.55;8.27;;;21.20;99.90;;;;;;5071540;28;20258;-84
2023/06/09 09:12:08;;;;;;;15.52;8.73;;;21.30;99.90;;;;;;5071766;28;20210;-84
2023/06/09 09:14:39;;;;;;;11.50;8.70;;;21.30;99.90;;;;;;5071129;28;20261;-84
2023/06/09 09:17:09;;;;;;;11.93;8.80;;;21.30;99.90;;;;;;5071351;28;20196;-84
2023/06/09 09:19:36;;;;;;;9.90;7.40;;;21.30;99.90;;;;;;5053344;28;20560;-84
2023/06/09 09:22:08;;;;;;;11.07;7.80;;;21.20;99.90;;;;;;5071126;28;20187;-84
2023/06/09 09:24:35;;;;;;;9.38;7.53;;;21.10;99.90;;;;;;5051080;28;20225;-84
2023/06/09 09:27:04;;;;;;;11.13;7.22;;;21.00;99.90;;;;;;5070647;28;20284;-84
2023/06/09 09:29:40;;;;;;;10.05;7.75;;;21.00;99.90;;;;;;5068436;28;20278;-84
2023/06/09 09:32:06;;;;;;;10.52;7.63;;;20.90;99.90;;;;;;5070992;28;20178;-84
2023/06/09 09:34:32;;;;;;;11.32;8.55;;;20.80;99.90;;;;;;5052781;28;20183;-84
2023/06/09 09:36:58;;;;;;;10.70;8.38;;;20.80;99.90;;;;;;5071065;28;20194;-84
2023/06/09 09:39:24;;;;;;;10.77;8.02;;;20.70;99.90;;;;;;5070354;28;20187;-84
2023/06/09 09:42:07;;;;;;;10.98;8.48;;;20.70;99.90;;;;;;5068613;28;20175;-84
2023/06/09 09:44:36;;;;;;;11.60;8.18;;;20.70;99.90;;;;;;5068171;28;20203;-84
2023/06/09 09:47:04;;;;;;;11.05;7.90;;;20.60;99.90;;;;;;5053112;28;20183;-84
2023/06/09 09:49:30;;;;;;;13.30;9.43;;;20.60;99.90;;;;;;5068005;28;20171;-84
2023/06/09 09:51:59;;;;;;;11.15;8.52;;;20.70;99.90;;;;;;5071388;28;20619;-85
2023/06/09 09:54:28;;;;;;;13.50;9.05;;;20.70;99.90;;;;;;5037834;28;20183;-85
2023/06/09 09:56:57;;;;;;;11.93;9.07;;;20.80;99.90;;;;;;5071991;28;20175;-84
2023/06/09 09:59:23;;;;;;;14.60;9.18;;;20.90;99.90;;;;;;5070799;28;20186;-84
2023/06/09 10:01:55;;;;;;;13.80;9.27;;;21.00;99.90;;;;;;5071580;28;20171;-85
2023/06/09 10:04:23;;;;;;;15.40;9.00;;;21.20;99.90;;;;;;5071557;28;20318;-84
2023/06/09 10:06:53;;;;;;;10.70;8.60;;;21.30;99.90;;;;;;5052168;28;20184;-86
2023/06/09 10:09:23;;;;;;;14.98;9.18;;;21.40;99.90;;;;;;5075403;28;20214;-86
2023/06/09 10:11:52;;;;;;;14.07;8.88;;;21.50;99.90;;;;;;5078198;28;20524;-85
2023/06/09 10:14:20;;;;;;;13.57;8.30;;;21.60;99.90;;;;;;5096219;28;20243;-85
2023/06/09 10:16:47;;;;;;;12.95;8.45;;;21.60;99.90;;;;;;5096550;28;20174;-85
2023/06/09 10:19:13;;;;;;;9.73;7.68;;;21.60;99.90;;;;;;5096323;28;20179;-85
2023/06/09 10:21:41;;;;;;;13.10;8.35;;;21.60;99.90;;;;;;5096715;28;20183;-84
2023/06/09 10:24:08;;;;;;;12.75;8.38;;;21.60;99.90;;;;;;5082590;28;20206;-83
2023/06/09 10:26:36;;;;;;;11.63;7.78;;;21.70;99.90;;;;;;5097206;28;20210;-85
2023/06/09 10:29:09;;;;;;;12.70;8.88;;;21.60;99.90;;;;;;5078611;28;20230;-85
2023/06/09 10:31:41;;;;;;;10.82;8.13;;;21.60;99.90;;;;;;5096046;28;20175;-85
2023/06/09 10:34:09;;;;;;;9.93;7.80;;;21.60;99.90;;;;;;5097635;28;20167;-86
2023/06/09 10:36:38;;;;;;;11.30;7.70;;;21.60;99.90;;;;;;5083924;28;20183;-87
2023/06/09 10:39:17;;;;;;;11.80;8.20;;;21.60;99.90;;;;;;5078068;28;20187;-86
2023/06/09 10:42:02;;;;;;;11.43;8.35;;;21.60;99.90;;;;;;5078010;28;20186;-86
2023/06/09 10:44:44;;;;;;;10.68;7.80;;;21.60;99.90;;;;;;5077643;28;20214;-84
2023/06/09 10:47:10;;;;;;;13.02;8.63;;;21.60;99.90;;;;;;5096019;28;20687;-85
2023/06/09 10:49:40;;;;;;;14.07;8.93;;;21.60;99.90;;;;;;5077334;28;20278;-86
2023/06/09 10:52:35;;;;;;;11.23;8.15;;;21.70;99.90;;;;;;5095776;28;20173;-86
2023/06/09 10:55:20;;;;;;;10.95;8.05;;;21.90;99.90;;;;;;5096450;28;20194;-87
2023/06/09 10:57:45;;;;;;;9.88;7.60;;;22.00;99.90;;;;;;5096008;28;20173;-84
2023/06/09 11:00:11;;;;;;;14.55;8.32;;;22.10;99.90;;;;;;5076761;28;20180;-85
2023/06/09 11:02:50;;;;;;;11.13;8.52;;;22.20;99.90;;;;;;5095022;28;20167;-86
2023/06/09 11:05:21;;;;;;;9.95;7.50;;;22.40;99.90;;;;;;5077020;28;20210;-87
2023/06/09 11:07:49;;;;;;;9.00;7.30;;;22.50;99.90;;;;;;5095404;28;20224;-87
2023/06/09 11:10:25;;;;;;;9.10;7.15;;;22.70;99.90;;;;;;5094485;28;20618;-85
2023/06/09 11:12:52;;;;;;;6.80;6.00;;;22.90;99.90;;;;;;5094450;28;20208;-85
2023/06/09 11:15:19;;;;;;;13.40;7.18;;;23.20;99.90;;;;;;5094301;28;20270;-85
2023/06/09 11:17:50;;;;;;;12.10;7.32;;;23.30;99.90;;;;;;5076118;28;20181;-85
2023/06/09 11:20:22;;;;;;;8.77;6.03;;;23.60;99.90;;;;;;5093925;28;20228;-83
2023/06/09 11:22:48;;;;;;;6.65;5.93;;;23.80;99.90;;;;;;5094313;28;20228;-85
2023/06/09 11:25:20;;;;;;;8.15;6.80;;;24.10;99.90;;;;;;5094083;28;20214;-86
2023/06/09 11:27:54;;;;;;;7.10;5.68;;;24.30;99.90;;;;;;5094119;28;20246;-85
2023/06/09 11:30:25;;;;;;;8.45;5.68;;;24.50;99.90;;;;;;5094380;28;20174;-85
2023/06/09 11:32:51;;;;;;;7.88;6.35;;;24.60;99.90;;;;;;5094492;28;20270;-85
2023/06/09 11:35:29;;;;;;;7.95;6.70;;;24.60;99.90;;;;;;5075835;28;20793;-85
2023/06/09 11:38:05;;;;;;;7.68;6.18;;;24.70;99.90;;;;;;5094083;28;20171;-85
2023/06/09 11:40:36;;;;;;;8.40;6.65;;;24.90;99.90;;;;;;5075333;28;20170;-85
2023/06/09 11:43:07;;;;;;;5.57;4.45;;;25.30;99.90;;;;;;5075834;28;20182;-85
2023/06/09 11:45:33;;;;;;;10.93;6.72;;;25.30;99.90;;;;;;5075496;28;20186;-86
2023/06/09 11:48:00;;;;;;;6.90;5.47;;;25.30;99.90;;;;;;5076103;28;20235;-84
2023/06/09 11:50:35;;;;;;;6.90;4.72;;;25.30;99.90;;;;;;5075345;28;20170;-84
2023/06/09 11:53:06;;;;;;;6.45;5.38;;;25.40;99.90;;;;;;5093674;28;20180;-85
2023/06/09 11:55:31;;;;;;;4.38;3.65;;;25.60;99.30;;;;;;5093414;28;20178;-85
2023/06/09 11:57:58;;;;;;;6.35;3.72;;;25.80;91.70;;;;;;5093564;28;20178;-85
2023/06/09 12:00:29;;;;;;;4.00;2.58;;;26.00;84.80;;;;;;5093216;28;20182;-85
2023/06/09 12:02:56;;;;;;;3.03;2.13;;;26.50;79.20;;;;;;5093417;28;20657;-85
2023/06/09 12:05:28;;;;;;;4.93;2.15;;;26.80;70.10;;;;;;5075492;28;20237;-86
2023/06/09 12:07:55;;;;;;;3.75;2.38;;;27.10;68.70;;;;;;5094058;28;20661;-85
2023/06/09 12:10:27;;;;;;;3.22;2.30;;;27.00;65.20;;;;;;5093830;28;20177;-85
2023/06/09 12:12:57;;;;;;;3.78;2.25;;;27.20;62.70;;;;;;5093919;28;20283;-85
2023/06/09 12:15:25;;;;;;;3.92;2.33;;;27.10;63.30;;;;;;5094474;28;20167;-85
2023/06/09 12:17:54;;;;;;;5.32;2.22;;;27.10;61.50;;;;;;5094203;28;20182;-85
2023/06/09 12:20:36;;;;;;;6.10;2.03;;;27.10;62.40;;;;;;5094100;28;20628;-85
2023/06/09 12:23:07;;;;;;;3.15;2.10;;;27.00;60.20;;;;;;5094208;28;20184;-85
2023/06/09 12:25:38;;;;;;;3.30;2.25;;;26.70;59.80;;;;;;5065977;28;20197;-85
2023/06/09 12:28:29;;;;;;;2.67;2.00;;;26.70;61.10;;;;;;5074258;28;20222;-85
2023/06/09 12:31:11;;;;;;;4.25;2.90;;;27.00;61.30;;;;;;5081532;28;20175;-85
2023/06/09 12:33:37;;;;;;;3.25;2.47;;;27.40;63.00;;;;;;5063127;28;20659;-85
2023/06/09 12:36:11;;;;;;;2.85;2.15;;;27.60;63.00;;;;;;5093177;28;20252;-86
2023/06/09 12:38:39;;;;;;;2.83;2.30;;;27.80;62.60;;;;;;5074388;28;20212;-85
2023/06/09 12:41:09;;;;;;;3.38;2.20;;;27.90;60.40;;;;;;5092983;28;20174;-84
2023/06/09 12:43:45;;;;;;;3.67;2.50;;;27.90;59.10;;;;;;5074431;28;20303;-84